createdAt,value
2022-10-19T00:01:21.087Z,22.57
2022-10-19T00:03:54.769Z,24.13
2022-10-19T00:06:28.456Z,21.52
2022-10-19T00:09:02.985Z,29.23
2022-10-19T00:11:31.632Z,22.88
2022-10-19T00:14:00.237Z,28.87
2022-10-19T00:16:31.779Z,24.50
2022-10-19T00:19:02.584Z,21.77
2022-10-19T00:21:29.976Z,20.33
2022-10-19T00:23:57.147Z,22.88
2022-10-19T00:26:24.587Z,21.08
2022-10-19T00:28:56.428Z,17.52
2022-10-19T00:31:24.448Z,20.02
2022-10-19T00:33:52.142Z,22.33
2022-10-19T00:36:21.904Z,14.57
2022-10-19T00:38:49.592Z,17.98
2022-10-19T00:41:19.124Z,14.32
2022-10-19T00:46:31.580Z,11.25
2022-10-19T00:49:10.910Z,17.75
2022-10-19T00:51:44.474Z,20.55
2022-10-19T00:54:12.180Z,12.57
2022-10-19T00:56:42.385Z,16.30
2022-10-19T00:59:12.412Z,21.52
2022-10-19T01:01:40.190Z,15.75
2022-10-19T01:04:07.966Z,12.30
2022-10-19T01:06:35.902Z,16.33
2022-10-19T01:09:03.151Z,18.50
2022-10-19T01:12:03.603Z,16.63
2022-10-19T01:14:58.696Z,15.27
2022-10-19T01:18:07.984Z,18.58
2022-10-19T01:20:56.790Z,18.38
2022-10-19T01:24:08.985Z,17.05
2022-10-19T01:27:12.782Z,24.13
2022-10-19T01:30:07.463Z,20.00
2022-10-19T01:32:50.240Z,24.58
2022-10-19T01:35:42.309Z,30.75
2022-10-19T01:38:33.356Z,27.30
2022-10-19T01:41:29.827Z,25.95
2022-10-19T01:44:22.184Z,21.00
2022-10-19T01:47:08.824Z,25.27
2022-10-19T01:49:58.451Z,24.65
2022-10-19T01:52:27.159Z,24.85
2022-10-19T01:54:59.698Z,18.63
2022-10-19T01:57:34.640Z,22.13
2022-10-19T02:00:06.885Z,18.45
2022-10-19T02:02:48.428Z,22.00
2022-10-19T02:05:19.073Z,21.13
2022-10-19T02:07:52.479Z,24.08
2022-10-19T02:10:21.012Z,18.83
2022-10-19T02:12:48.551Z,18.17
2022-10-19T02:15:21.803Z,22.35
2022-10-19T02:17:56.229Z,15.95
2022-10-19T02:20:23.687Z,19.95
2022-10-19T02:22:51.073Z,17.58
2022-10-19T02:25:18.723Z,15.32
2022-10-19T02:27:45.931Z,11.38
2022-10-19T02:30:17.086Z,12.63
2022-10-19T02:32:44.438Z,14.75
2022-10-19T02:35:13.690Z,20.70
2022-10-19T02:37:41.382Z,14.82
2022-10-19T02:40:09.471Z,14.50
2022-10-19T02:43:00.112Z,12.85
2022-10-19T02:45:31.498Z,15.38
2022-10-19T02:48:10.755Z,24.05
2022-10-19T02:50:42.504Z,25.48
2022-10-19T02:53:09.593Z,23.70
2022-10-19T02:55:36.864Z,23.42
2022-10-19T02:58:03.896Z,23.33
2022-10-19T03:00:31.105Z,31.42
2022-10-19T03:02:58.149Z,31.58
2022-10-19T03:05:25.282Z,31.92
2022-10-19T03:07:52.432Z,20.35
2022-10-19T03:10:19.632Z,15.13
2022-10-19T03:12:46.685Z,20.98
2022-10-19T03:15:18.979Z,26.55
2022-10-19T03:17:46.093Z,22.42
2022-10-19T03:20:13.180Z,22.80
2022-10-19T03:22:40.674Z,21.35
2022-10-19T03:25:08.481Z,24.08
2022-10-19T03:27:35.831Z,19.13
2022-10-19T03:30:03.683Z,26.70
2022-10-19T03:32:30.821Z,25.75
2022-10-19T03:34:57.922Z,27.08
2022-10-19T03:37:25.066Z,29.83
2022-10-19T03:39:52.469Z,24.42
2022-10-19T03:42:19.550Z,26.73
2022-10-19T03:44:46.660Z,27.55
2022-10-19T03:47:13.777Z,38.67
2022-10-19T03:49:42.928Z,29.35
2022-10-19T03:52:10.184Z,26.02
2022-10-19T03:54:37.435Z,31.63
2022-10-19T03:57:04.676Z,29.05
2022-10-19T03:59:31.988Z,29.77
2022-10-19T04:01:59.096Z,26.70
2022-10-19T04:04:26.574Z,36.47
2022-10-19T04:06:54.135Z,22.08
2022-10-19T04:09:23.330Z,26.17
2022-10-19T04:11:51.029Z,25.52
2022-10-19T04:14:31.763Z,21.70
2022-10-19T04:17:01.760Z,23.77
2022-10-19T04:19:29.217Z,22.60
2022-10-19T04:21:56.941Z,24.05
2022-10-19T04:24:27.475Z,22.30
2022-10-19T04:26:56.019Z,20.80
2022-10-19T04:29:29.493Z,24.90
2022-10-19T04:31:58.992Z,22.33
2022-10-19T04:34:26.270Z,22.17
2022-10-19T04:36:53.579Z,19.05
2022-10-19T04:39:20.661Z,16.35
2022-10-19T04:41:47.715Z,17.20
2022-10-19T04:44:14.933Z,19.50
2022-10-19T04:46:42.043Z,26.20
2022-10-19T04:49:09.148Z,21.83
2022-10-19T04:51:36.472Z,20.13
2022-10-19T04:54:04.288Z,28.00
2022-10-19T04:56:31.724Z,21.35
2022-10-19T04:59:00.420Z,22.58
2022-10-19T05:01:30.362Z,25.27
2022-10-19T05:04:01.023Z,31.58
2022-10-19T05:06:30.016Z,28.55
2022-10-19T05:08:57.774Z,39.15
2022-10-19T05:11:25.989Z,43.50
2022-10-19T05:13:53.194Z,23.27
2022-10-19T05:16:22.793Z,21.20
2022-10-19T05:21:20.297Z,28.80
2022-10-19T05:23:51.893Z,32.40
2022-10-19T05:26:21.753Z,29.52
2022-10-19T05:28:55.950Z,30.90
2022-10-19T05:31:27.296Z,44.30
2022-10-19T05:33:57.469Z,33.95
2022-10-19T05:36:33.937Z,34.83
2022-10-19T05:39:22.176Z,25.23
2022-10-19T05:41:49.663Z,31.33
2022-10-19T05:44:22.591Z,15.27
2022-10-19T05:46:50.959Z,26.58
2022-10-19T05:49:20.763Z,25.55
2022-10-19T05:51:49.162Z,28.25
2022-10-19T05:54:16.838Z,19.90
2022-10-19T05:56:44.893Z,19.30
2022-10-19T05:59:19.625Z,20.42
2022-10-19T06:01:47.548Z,19.80
2022-10-19T06:06:43.009Z,12.80
2022-10-19T06:09:10.707Z,21.02
2022-10-19T06:11:40.567Z,21.40
2022-10-19T06:14:12.963Z,24.73
2022-10-19T06:16:40.373Z,28.20
2022-10-19T06:19:07.568Z,17.65
2022-10-19T06:21:35.206Z,28.65
2022-10-19T06:24:05.866Z,36.00
2022-10-19T06:26:35.041Z,35.03
2022-10-19T06:29:03.795Z,42.05
2022-10-19T06:31:34.484Z,40.17
2022-10-19T06:34:02.105Z,51.95
2022-10-19T06:36:31.271Z,28.13
2022-10-19T06:39:00.905Z,33.33
2022-10-19T06:41:29.868Z,36.20
2022-10-19T06:43:59.943Z,45.58
2022-10-19T06:46:27.860Z,31.70
2022-10-19T06:49:02.157Z,31.08
2022-10-19T06:51:31.746Z,19.25
2022-10-19T06:53:59.102Z,24.83
2022-10-19T06:56:27.299Z,29.42
2022-10-19T06:58:54.779Z,24.50
2022-10-19T07:01:22.753Z,38.35
2022-10-19T07:03:51.942Z,28.67
2022-10-19T07:06:19.658Z,22.88
2022-10-19T07:08:47.395Z,27.15
2022-10-19T07:11:19.845Z,26.83
2022-10-19T07:13:47.011Z,32.65
2022-10-19T07:16:20.640Z,20.98
2022-10-19T07:18:52.159Z,27.38
2022-10-19T07:21:21.985Z,32.00
2022-10-19T07:23:49.718Z,34.03
2022-10-19T07:26:23.178Z,39.03
2022-10-19T07:28:50.809Z,21.63
2022-10-19T07:31:21.922Z,29.25
2022-10-19T07:33:54.118Z,21.65
2022-10-19T07:36:22.279Z,16.52
2022-10-19T07:38:49.620Z,17.65
2022-10-19T07:41:19.561Z,21.33
2022-10-19T07:43:47.919Z,18.92
2022-10-19T07:46:28.696Z,21.00
2022-10-19T07:48:55.925Z,29.50
2022-10-19T07:51:23.175Z,19.13
2022-10-19T07:53:50.741Z,24.40
2022-10-19T07:56:26.193Z,21.05
2022-10-19T07:58:56.197Z,21.40
2022-10-19T08:01:27.076Z,25.88
2022-10-19T08:09:15.589Z,26.33
2022-10-19T08:11:50.162Z,22.17
2022-10-19T08:14:17.310Z,23.35
2022-10-19T08:16:44.483Z,19.83
2022-10-19T08:19:15.212Z,15.30
2022-10-19T08:21:45.238Z,16.42
2022-10-19T08:24:17.716Z,19.58
2022-10-19T08:26:45.320Z,19.73
2022-10-19T08:29:16.188Z,13.52
2022-10-19T08:31:45.774Z,12.57
2022-10-19T08:34:14.021Z,14.35
2022-10-19T08:39:12.161Z,10.52
2022-10-19T08:42:05.337Z,15.57
2022-10-19T08:45:19.216Z,15.95
2022-10-19T08:47:58.379Z,11.75
2022-10-19T08:53:17.825Z,12.25
2022-10-19T08:56:04.424Z,16.38
2022-10-19T08:58:51.639Z,13.52
2022-10-19T09:01:54.892Z,10.80
2022-10-19T09:04:41.235Z,10.80
2022-10-19T09:07:30.623Z,15.73
2022-10-19T09:10:13.058Z,13.23
2022-10-19T09:13:53.241Z,9.00
2022-10-19T09:16:25.067Z,7.70
2022-10-19T09:21:47.755Z,31.05
2022-10-19T09:24:46.084Z,7.57
2022-10-19T09:27:25.775Z,4.53
2022-10-19T09:29:58.205Z,8.68
2022-10-19T09:32:38.195Z,3.08
2022-10-19T09:35:20.873Z,10.45
2022-10-19T09:37:50.311Z,6.40
2022-10-19T09:40:25.508Z,5.05
2022-10-19T09:42:57.101Z,7.68
2022-10-19T09:45:50.901Z,6.75
2022-10-19T09:48:46.829Z,6.30
2022-10-19T09:51:16.568Z,8.35
2022-10-19T09:53:55.524Z,6.20
2022-10-19T09:56:27.265Z,7.25
2022-10-19T09:58:57.687Z,7.60
2022-10-19T10:01:42.047Z,17.55
2022-10-19T10:04:17.871Z,6.97
2022-10-19T10:06:48.127Z,6.82
2022-10-19T10:09:25.725Z,8.05
2022-10-19T10:11:57.833Z,7.07
2022-10-19T10:14:35.945Z,3.95
2022-10-19T10:17:11.898Z,3.40
2022-10-19T10:19:58.643Z,3.55
2022-10-19T10:22:30.159Z,7.45
2022-10-19T10:24:57.764Z,4.85
2022-10-19T10:27:37.590Z,3.20
2022-10-19T10:30:08.853Z,3.58
2022-10-19T10:32:48.180Z,6.88
2022-10-19T10:35:29.912Z,3.78
2022-10-19T10:38:26.745Z,7.45
2022-10-19T10:41:07.245Z,7.10
2022-10-19T10:43:48.173Z,4.72
2022-10-19T10:46:21.500Z,2.85
2022-10-19T10:49:02.540Z,2.42
2022-10-19T10:51:48.147Z,2.28
2022-10-19T10:54:27.263Z,3.83
2022-10-19T10:57:19.308Z,6.13
2022-10-19T11:00:01.313Z,6.45
2022-10-19T11:03:14.025Z,7.57
2022-10-19T11:05:49.862Z,4.40
2022-10-19T11:09:04.690Z,5.65
2022-10-19T11:11:42.563Z,4.60
2022-10-19T11:14:50.026Z,8.70
2022-10-19T11:17:24.773Z,2.13
2022-10-19T11:19:52.997Z,3.15
2022-10-19T11:22:51.047Z,1.60
2022-10-19T11:25:43.951Z,4.50
2022-10-19T11:28:32.575Z,2.30
2022-10-19T11:31:32.216Z,2.05
2022-10-19T11:34:25.251Z,3.30
2022-10-19T11:37:25.940Z,2.95
2022-10-19T11:40:22.390Z,2.67
2022-10-19T11:42:57.762Z,6.05
2022-10-19T11:45:33.738Z,2.70
2022-10-19T11:48:40.378Z,6.78
2022-10-19T11:51:38.721Z,3.38
2022-10-19T11:54:43.938Z,4.53
2022-10-19T11:57:30.318Z,3.83
2022-10-19T12:00:15.687Z,3.88
2022-10-19T12:03:47.305Z,1.58
2022-10-19T12:06:23.176Z,3.45
2022-10-19T12:09:37.703Z,4.07
2022-10-19T12:12:30.956Z,3.17
2022-10-19T12:15:11.796Z,6.72
2022-10-19T12:17:43.650Z,6.32
2022-10-19T12:20:36.786Z,6.15
2022-10-19T12:23:37.340Z,4.93
2022-10-19T12:26:09.589Z,5.55
2022-10-19T12:28:54.121Z,13.98
2022-10-19T12:31:25.711Z,3.03
2022-10-19T12:34:31.229Z,2.97
2022-10-19T12:37:03.608Z,8.25
2022-10-19T12:39:55.465Z,4.07
2022-10-19T12:42:22.456Z,3.13
2022-10-19T12:45:20.544Z,2.70
2022-10-19T12:48:12.373Z,6.03
2022-10-19T12:50:49.022Z,2.55
2022-10-19T12:54:06.789Z,5.82
2022-10-19T12:56:51.346Z,18.73
2022-10-19T12:59:36.394Z,2.72
2022-10-19T13:02:21.862Z,5.97
2022-10-19T13:04:53.697Z,5.20
2022-10-19T13:07:21.232Z,2.00
2022-10-19T13:09:48.852Z,12.05
2022-10-19T13:12:19.899Z,7.80
2022-10-19T13:15:00.158Z,7.05
2022-10-19T13:17:43.440Z,5.85
2022-10-19T13:20:13.747Z,2.65
2022-10-19T13:22:46.011Z,9.75
2022-10-19T13:25:16.482Z,8.32
2022-10-19T13:27:45.565Z,3.70
2022-10-19T13:30:37.748Z,6.30
2022-10-19T13:33:29.632Z,2.22
2022-10-19T13:35:59.769Z,7.25
2022-10-19T13:38:33.937Z,12.00
2022-10-19T13:41:21.628Z,5.15
2022-10-19T13:44:15.419Z,1.88
2022-10-19T13:47:23.341Z,9.18
2022-10-19T13:50:11.476Z,3.40
2022-10-19T13:53:10.038Z,10.00
2022-10-19T13:56:09.263Z,2.92
2022-10-19T13:59:21.600Z,4.43
2022-10-19T14:02:35.574Z,4.68
2022-10-19T14:05:26.987Z,15.18
2022-10-19T14:08:05.988Z,9.10
2022-10-19T14:13:21.706Z,4.28
2022-10-19T14:15:56.823Z,4.10
2022-10-19T14:18:35.019Z,3.47
2022-10-19T14:21:08.291Z,3.67
2022-10-19T14:23:39.887Z,9.50
2022-10-19T14:26:17.107Z,6.43
2022-10-19T14:28:44.388Z,3.25
2022-10-19T14:31:22.959Z,3.70
2022-10-19T14:33:53.620Z,6.40
2022-10-19T14:36:24.567Z,6.45
2022-10-19T14:38:55.990Z,3.42
2022-10-19T14:41:26.131Z,9.23
2022-10-19T14:43:57.896Z,4.05
2022-10-19T14:46:33.457Z,7.80
2022-10-19T14:49:17.323Z,4.95
2022-10-19T14:52:03.618Z,8.07
2022-10-19T14:54:38.021Z,4.88
2022-10-19T14:57:18.134Z,4.05
2022-10-19T15:00:00.618Z,3.53
2022-10-19T15:02:43.615Z,5.55
2022-10-19T15:05:33.941Z,11.95
2022-10-19T15:08:42.124Z,6.22
2022-10-19T15:11:31.408Z,10.43
2022-10-19T15:14:05.986Z,4.82
2022-10-19T15:16:49.953Z,5.82
2022-10-19T15:19:18.412Z,10.02
2022-10-19T15:22:04.960Z,10.60
2022-10-19T15:24:32.086Z,9.07
2022-10-19T15:27:17.492Z,9.98
2022-10-19T15:30:00.709Z,9.88
2022-10-19T15:32:35.898Z,6.00
2022-10-19T15:35:28.013Z,17.38
2022-10-19T15:38:27.600Z,17.65
2022-10-19T15:41:00.873Z,12.98
2022-10-19T15:43:33.454Z,21.73
2022-10-19T15:46:33.082Z,9.63
2022-10-19T15:49:40.040Z,9.48
2022-10-19T15:52:25.200Z,12.98
2022-10-19T15:54:55.909Z,11.80
2022-10-19T15:57:29.412Z,13.10
2022-10-19T16:00:01.715Z,13.35
2022-10-19T16:02:31.362Z,14.43
2022-10-19T16:04:58.451Z,11.32
2022-10-19T16:07:29.749Z,12.18
2022-10-19T16:09:57.433Z,11.55
2022-10-19T16:12:26.055Z,8.75
2022-10-19T16:14:54.106Z,18.48
2022-10-19T16:17:21.750Z,23.80
2022-10-19T16:19:49.154Z,23.95
2022-10-19T16:22:16.999Z,16.15
2022-10-19T16:24:44.117Z,20.23
2022-10-19T16:27:14.458Z,20.48
2022-10-19T16:29:43.687Z,15.93
2022-10-19T16:34:38.350Z,21.48
2022-10-19T16:37:07.068Z,16.77
2022-10-19T16:39:34.887Z,26.75
2022-10-19T16:42:02.125Z,10.93
2022-10-19T16:44:29.483Z,20.35
2022-10-19T16:46:57.840Z,9.75
2022-10-19T16:49:26.004Z,23.00
2022-10-19T16:51:56.304Z,28.27
2022-10-19T16:54:32.072Z,24.67
2022-10-19T16:56:59.258Z,32.08
2022-10-19T16:59:26.428Z,19.45
2022-10-19T17:01:53.938Z,23.13
2022-10-19T17:04:21.482Z,20.48
2022-10-19T17:06:48.698Z,21.70
2022-10-19T17:09:41.478Z,21.17
2022-10-19T17:12:03.440Z,36.78
2022-10-19T17:14:30.928Z,34.53
2022-10-19T17:16:58.075Z,30.58
2022-10-19T17:19:25.512Z,35.80
2022-10-19T17:21:55.272Z,22.45
2022-10-19T17:24:22.546Z,34.70
2022-10-19T17:26:51.918Z,26.98
2022-10-19T17:29:20.787Z,27.13
2022-10-19T17:31:49.001Z,24.90
2022-10-19T17:34:17.443Z,23.73
2022-10-19T17:36:47.135Z,25.80
2022-10-19T17:39:25.660Z,31.75
2022-10-19T17:42:02.687Z,28.88
2022-10-19T17:44:30.768Z,33.88
2022-10-19T17:46:59.467Z,46.30
2022-10-19T17:49:26.704Z,43.03
2022-10-19T17:51:53.869Z,29.50
2022-10-19T17:54:20.989Z,22.63
2022-10-19T17:56:48.130Z,30.23
2022-10-19T17:59:15.219Z,36.88
2022-10-19T18:01:42.354Z,36.92
2022-10-19T18:04:09.634Z,23.38
2022-10-19T18:06:38.056Z,31.17
2022-10-19T18:09:09.985Z,24.50
2022-10-19T18:11:43.055Z,25.00
2022-10-19T18:14:12.401Z,29.85
2022-10-19T18:19:15.620Z,24.63
2022-10-19T18:21:45.337Z,30.98
2022-10-19T18:24:18.760Z,38.05
2022-10-19T18:26:48.062Z,33.33
2022-10-19T18:31:50.745Z,37.45
2022-10-19T18:34:22.538Z,35.75
2022-10-19T18:36:51.039Z,28.73
2022-10-19T18:39:19.084Z,29.90
2022-10-19T18:41:51.093Z,28.77
2022-10-19T18:44:22.164Z,27.15
2022-10-19T18:46:53.562Z,23.05
2022-10-19T18:49:20.814Z,46.17
2022-10-19T18:51:54.006Z,40.05
2022-10-19T18:54:24.155Z,60.08
2022-10-19T18:56:51.330Z,73.57
2022-10-19T18:59:18.881Z,49.42
2022-10-19T19:01:46.161Z,30.30
2022-10-19T19:04:13.378Z,34.40
2022-10-19T19:06:41.546Z,29.70
2022-10-19T19:09:11.284Z,26.50
2022-10-19T19:11:40.586Z,28.02
2022-10-19T19:16:44.338Z,45.17
2022-10-19T19:19:17.230Z,39.17
2022-10-19T19:21:45.173Z,37.95
2022-10-19T19:24:17.253Z,35.22
2022-10-19T19:26:49.472Z,41.55
2022-10-19T19:29:17.966Z,34.72
2022-10-19T19:31:46.564Z,27.37
2022-10-19T19:34:13.815Z,23.17
2022-10-19T19:36:46.174Z,23.50
2022-10-19T19:39:15.526Z,24.67
2022-10-19T19:44:10.184Z,28.00
2022-10-19T19:46:37.958Z,26.55
2022-10-19T19:49:05.349Z,27.73
2022-10-19T19:51:35.399Z,20.00
2022-10-19T19:54:03.839Z,28.83
2022-10-19T19:56:31.314Z,23.17
2022-10-19T19:59:02.733Z,25.23
2022-10-19T20:01:30.480Z,34.53
2022-10-19T20:03:59.089Z,35.28
2022-10-19T20:06:26.349Z,27.98
2022-10-19T20:08:55.894Z,17.10
2022-10-19T20:11:26.138Z,19.23
2022-10-19T20:13:53.463Z,22.02
2022-10-19T20:16:31.394Z,14.02
2022-10-19T20:19:11.815Z,23.88
2022-10-19T20:21:40.477Z,19.02
2022-10-19T20:24:07.999Z,12.02
2022-10-19T20:26:35.930Z,11.82
2022-10-19T20:29:03.994Z,13.35
2022-10-19T20:31:32.736Z,18.25
2022-10-19T20:33:59.970Z,19.58
2022-10-19T20:36:27.209Z,22.60
2022-10-19T20:38:57.367Z,19.17
2022-10-19T20:41:27.697Z,20.65
2022-10-19T20:43:55.210Z,22.70
2022-10-19T20:46:27.620Z,35.92
2022-10-19T20:48:59.079Z,41.00
2022-10-19T20:51:33.032Z,33.83
2022-10-19T20:54:03.069Z,49.42
2022-10-19T20:56:34.022Z,27.75
2022-10-19T21:01:38.655Z,36.03
2022-10-19T21:04:09.747Z,38.63
2022-10-19T21:06:49.455Z,42.10
2022-10-19T21:09:22.272Z,37.13
2022-10-19T21:11:51.613Z,40.78
2022-10-19T21:14:28.418Z,46.60
2022-10-19T21:16:58.284Z,44.97
2022-10-19T21:19:28.489Z,44.10
2022-10-19T21:22:02.699Z,42.55
2022-10-19T21:24:36.057Z,51.15
2022-10-19T21:27:06.996Z,93.07
2022-10-19T21:29:35.872Z,71.93
2022-10-19T21:32:03.410Z,58.90
2022-10-19T21:34:31.435Z,49.10
2022-10-19T21:36:59.282Z,34.47
2022-10-19T21:39:26.461Z,40.97
2022-10-19T21:41:54.364Z,62.72
2022-10-19T21:44:22.437Z,102.32
2022-10-19T21:46:50.426Z,86.68
2022-10-19T21:49:18.054Z,53.63
2022-10-19T21:51:53.099Z,29.80
2022-10-19T21:54:26.716Z,29.90
2022-10-19T21:56:55.956Z,29.90
2022-10-19T21:59:24.128Z,37.22
2022-10-19T22:01:51.564Z,28.48
2022-10-19T22:04:18.796Z,16.00
2022-10-19T22:06:46.290Z,39.05
2022-10-19T22:09:18.126Z,32.03
2022-10-19T22:11:45.824Z,32.75
2022-10-19T22:14:14.787Z,40.97
2022-10-19T22:16:43.035Z,31.25
2022-10-19T22:19:10.671Z,26.38
2022-10-19T22:24:14.442Z,32.40
2022-10-19T22:26:46.206Z,35.28
2022-10-19T22:29:14.310Z,43.33
2022-10-19T22:31:41.862Z,29.27
2022-10-19T22:34:16.042Z,31.52
2022-10-19T22:36:44.194Z,27.38
2022-10-19T22:39:12.272Z,35.40
2022-10-19T22:41:39.557Z,21.25
2022-10-19T22:44:06.702Z,48.30
2022-10-19T22:46:33.939Z,23.80
2022-10-19T22:49:01.125Z,26.42
2022-10-19T22:51:28.245Z,22.60
2022-10-19T22:53:55.581Z,27.30
2022-10-19T22:56:22.770Z,26.02
2022-10-19T22:58:49.972Z,24.25
2022-10-19T23:01:17.656Z,22.48
2022-10-19T23:03:44.944Z,23.83
2022-10-19T23:06:14.817Z,18.38
2022-10-19T23:08:44.017Z,18.95
2022-10-19T23:11:11.789Z,25.45
2022-10-19T23:13:39.373Z,19.70
2022-10-19T23:16:07.789Z,18.38
2022-10-19T23:18:37.153Z,20.48
2022-10-19T23:21:10.114Z,21.48
2022-10-19T23:23:38.203Z,19.55
2022-10-19T23:26:20.351Z,17.30
2022-10-19T23:28:49.403Z,16.10
2022-10-19T23:31:26.155Z,23.85
2022-10-19T23:33:53.839Z,26.33
2022-10-19T23:36:25.023Z,19.63
2022-10-19T23:38:53.052Z,22.17
2022-10-19T23:41:21.472Z,21.98
2022-10-19T23:43:49.227Z,20.80
2022-10-19T23:46:16.633Z,19.45
2022-10-19T23:48:43.793Z,22.90
2022-10-19T23:51:14.843Z,24.73
2022-10-19T23:53:44.542Z,21.52
2022-10-19T23:56:22.082Z,24.27
2022-10-19T23:58:49.850Z,21.05
